Time;durP1;ratioP1;P1;durP2;ratioP2;P2;SDS_P1;SDS_P2;PMS_P1;PMS_P2;Temp;Humidity;BMP_temperature;BMP_pressure;BME280_temperature;BME280_humidity;BME280_pressure;Samples;Min_cycle;Max_cycle;Signal;HPM_P1;HPM_P2
2023/04/29 04:51:59;;;;;;;;;;;;;;;12.61;84.04;97750.44;4850390;23;19937;-65
2023/04/29 04:54:25;;;;;;;;;;;;;;;12.58;83.63;97756.78;4842205;29;20015;-63
2023/04/29 04:56:51;;;;;;;;;;;;;;;12.59;84.77;97753.22;4833183;29;19925;-63
2023/04/29 04:59:16;;;;;;;;;;;;;;;12.62;83.96;97761.81;4825855;29;20401;-63
2023/04/29 05:01:41;;;;;;;;;;;;;;;12.62;84.10;97753.91;4826908;29;19921;-65
2023/04/29 05:04:06;;;;;;;;;;;;;;;12.74;83.49;97753.72;4830018;29;19924;-65
2023/04/29 05:06:31;;;;;;;;;;;;;;;12.77;83.32;97752.63;4826042;29;19960;-66
2023/04/29 05:08:57;;;;;;;;;;;;;;;12.69;84.36;97758.53;4815290;29;19978;-64
2023/04/29 05:11:22;;;;;;;;;;;;;;;12.64;85.30;97765.16;4833516;29;19952;-64
2023/04/29 05:13:47;;;;;;;;;;;;;;;12.46;86.11;97768.34;4824824;29;19956;-62
2023/04/29 05:16:12;;;;;;;;;;;;;;;12.55;84.85;97764.09;4807563;29;20326;-63
2023/04/29 05:18:38;;;;;;;;;;;;;;;12.54;85.88;97768.53;4827534;29;19916;-65
2023/04/29 05:21:03;;;;;;;;;;;;;;;12.76;83.47;97770.19;4828926;29;19921;-65
2023/04/29 05:23:28;;;;;;;;;;;;;;;12.72;85.21;97767.97;4833605;29;19920;-66
2023/04/29 05:25:54;;;;;;;;;;;;;;;12.82;84.52;97769.69;4824054;29;20387;-64
2023/04/29 05:28:19;;;;;;;;;;;;;;;12.84;84.20;97764.31;4807287;29;20387;-64
2023/04/29 05:30:44;;;;;;;;;;;;;;;12.88;84.56;97772.78;4831655;29;20287;-64
2023/04/29 05:33:10;;;;;;;;;;;;;;;12.90;84.00;97770.81;4834088;29;19917;-64
2023/04/29 05:35:36;;;;;;;;;;;;;;;12.88;84.18;97783.31;4812202;29;20310;-63
2023/04/29 05:38:01;;;;;;;;;;;;;;;12.88;84.74;97773.59;4841414;29;19917;-66
2023/04/29 05:40:26;;;;;;;;;;;;;;;12.80;85.68;97776.91;4839718;29;19967;-64
2023/04/29 05:42:52;;;;;;;;;;;;;;;12.84;84.46;97782.72;4814666;29;19929;-65
2023/04/29 05:45:17;;;;;;;;;;;;;;;12.77;84.99;97787.66;4810957;29;19920;-63
2023/04/29 05:47:42;;;;;;;;;;;;;;;12.88;84.03;97784.13;4823202;29;19959;-65
2023/04/29 05:50:07;;;;;;;;;;;;;;;12.85;84.39;97786.19;4840469;29;20379;-65
2023/04/29 05:52:32;;;;;;;;;;;;;;;12.95;83.59;97789.72;4831680;29;20655;-62
2023/04/29 05:54:58;;;;;;;;;;;;;;;13.02;83.05;97794.31;4836973;29;19929;-65
2023/04/29 05:57:23;;;;;;;;;;;;;;;13.08;82.18;97795.59;4814501;29;19936;-64
2023/04/29 05:59:48;;;;;;;;;;;;;;;13.12;82.19;97801.44;4822989;29;19948;-64
2023/04/29 06:02:14;;;;;;;;;;;;;;;13.14;82.54;97802.13;4824156;29;19921;-64
2023/04/29 06:04:40;;;;;;;;;;;;;;;13.20;81.84;97793.72;4831311;29;19928;-65
2023/04/29 06:07:06;;;;;;;;;;;;;;;13.23;81.48;97811.88;4832089;29;19930;-65
2023/04/29 06:09:32;;;;;;;;;;;;;;;13.39;80.58;97804.38;4839585;29;19916;-64
2023/04/29 06:11:57;;;;;;;;;;;;;;;13.50;80.59;97806.91;4816712;29;19920;-65
2023/04/29 06:14:22;;;;;;;;;;;;;;;13.44;81.24;97806.59;4813827;29;20383;-65
2023/04/29 06:16:48;;;;;;;;;;;;;;;13.42;80.84;97803.25;4830559;29;20402;-62
2023/04/29 06:19:14;;;;;;;;;;;;;;;13.56;80.18;97812.59;4822780;29;20027;-65
2023/04/29 06:21:39;;;;;;;;;;;;;;;13.51;79.94;97815.63;4836453;29;20453;-64
2023/04/29 06:24:04;;;;;;;;;;;;;;;13.58;79.08;97823.84;4831931;29;19925;-63
2023/04/29 06:26:30;;;;;;;;;;;;;;;13.64;79.56;97828.59;4833587;29;19920;-63
2023/04/29 06:28:55;;;;;;;;;;;;;;;13.43;80.07;97832.13;4830161;29;20336;-64
2023/04/29 06:31:21;;;;;;;;;;;;;;;13.25;80.99;97836.34;4821642;29;19921;-62
2023/04/29 06:33:46;;;;;;;;;;;;;;;13.21;81.13;97840.13;4839083;29;19927;-63
2023/04/29 06:36:11;;;;;;;;;;;;;;;13.03;81.29;97840.72;4834246;29;19925;-63
2023/04/29 06:38:37;;;;;;;;;;;;;;;13.03;81.74;97853.91;4832983;29;19921;-64
2023/04/29 06:41:03;;;;;;;;;;;;;;;13.04;81.99;97845.06;4817511;29;19927;-63
2023/04/29 06:43:28;;;;;;;;;;;;;;;13.09;82.18;97849.09;4826161;29;19917;-64
2023/04/29 06:45:53;;;;;;;;;;;;;;;13.04;82.18;97852.97;4834873;29;21166;-63
2023/04/29 06:48:19;;;;;;;;;;;;;;;13.12;81.54;97849.66;4833443;29;20387;-63
2023/04/29 06:50:50;;;;;;;;;;;;;;;13.05;82.47;97849.34;4829633;29;20673;-62
2023/04/29 06:53:16;;;;;;;;;;;;;;;13.07;82.61;97850.06;4842628;29;19920;-63
2023/04/29 06:55:41;;;;;;;;;;;;;;;13.13;82.73;97855.75;4818431;29;19928;-62
2023/04/29 06:58:06;;;;;;;;;;;;;;;13.11;82.76;97861.19;4815885;29;19928;-64
2023/04/29 07:00:32;;;;;;;;;;;;;;;13.11;83.00;97857.69;4833131;29;19921;-65
2023/04/29 07:02:57;;;;;;;;;;;;;;;13.14;83.13;97858.25;4839741;29;20438;-65
2023/04/29 07:05:23;;;;;;;;;;;;;;;13.07;82.73;97860.59;4830029;29;19967;-65
2023/04/29 07:07:48;;;;;;;;;;;;;;;13.11;82.68;97857.69;4821115;29;19948;-64
2023/04/29 07:10:13;;;;;;;;;;;;;;;13.14;82.83;97867.97;4814261;29;19924;-64
2023/04/29 07:12:38;;;;;;;;;;;;;;;13.16;83.11;97866.03;4821013;29;19920;-65
2023/04/29 07:15:04;;;;;;;;;;;;;;;13.17;82.41;97865.06;4837017;29;20371;-64
2023/04/29 07:17:30;;;;;;;;;;;;;;;13.24;82.24;97868.88;4840213;29;20450;-65
2023/04/29 07:19:55;;;;;;;;;;;;;;;13.30;82.08;97871.00;4815194;29;19921;-65
2023/04/29 07:22:21;;;;;;;;;;;;;;;13.27;81.98;97871.25;4804090;29;19921;-66
2023/04/29 07:24:46;;;;;;;;;;;;;;;13.22;81.99;97878.69;4819559;29;19921;-65
2023/04/29 07:27:12;;;;;;;;;;;;;;;13.20;82.07;97883.25;4832992;29;20003;-66
2023/04/29 07:29:37;;;;;;;;;;;;;;;13.23;81.79;97877.72;4828950;29;20012;-66
2023/04/29 07:32:02;;;;;;;;;;;;;;;13.29;81.77;97882.50;4834871;29;20035;-66
2023/04/29 07:34:27;;;;;;;;;;;;;;;13.44;81.74;97875.09;4834687;29;20534;-66
2023/04/29 07:36:53;;;;;;;;;;;;;;;13.58;81.37;97884.44;4838583;29;19921;-66
2023/04/29 07:39:18;;;;;;;;;;;;;;;13.77;80.44;97876.63;4824047;29;19937;-65
2023/04/29 07:41:43;;;;;;;;;;;;;;;13.89;80.37;97888.72;4817499;29;19925;-66
2023/04/29 07:44:08;;;;;;;;;;;;;;;13.96;79.91;97881.13;4808148;29;19917;-66
2023/04/29 07:46:34;;;;;;;;;;;;;;;14.16;78.68;97876.75;4838354;29;20507;-66
2023/04/29 07:48:59;;;;;;;;;;;;;;;14.19;79.04;97881.75;4830982;29;20376;-65
2023/04/29 07:51:26;;;;;;;;;;;;;;;14.19;77.07;97887.84;4834443;29;20012;-67
2023/04/29 07:53:51;;;;;;;;;;;;;;;14.21;76.02;97890.34;4822574;29;20097;-65
2023/04/29 07:56:16;;;;;;;;;;;;;;;14.21;75.93;97887.72;4841275;29;20438;-66
2023/04/29 07:58:41;;;;;;;;;;;;;;;14.19;76.21;97887.84;4811777;29;20409;-65
2023/04/29 08:01:10;;;;;;;;;;;;;;;14.33;75.61;97899.81;4832545;29;19921;-66
2023/04/29 08:03:36;;;;;;;;;;;;;;;14.55;74.47;97895.28;4814609;29;19978;-65
2023/04/29 08:06:02;;;;;;;;;;;;;;;14.73;74.08;97901.56;4792368;29;19967;-67
2023/04/29 08:08:27;;;;;;;;;;;;;;;14.88;73.13;97900.16;4829027;29;20061;-64
2023/04/29 08:10:53;;;;;;;;;;;;;;;14.94;73.14;97909.34;4819661;29;19920;-68
2023/04/29 08:13:18;;;;;;;;;;;;;;;14.92;72.10;97914.75;4834181;29;19920;-67
2023/04/29 08:15:43;;;;;;;;;;;;;;;14.82;73.07;97915.72;4841374;29;19920;-67
2023/04/29 08:18:08;;;;;;;;;;;;;;;14.61;72.86;97915.88;4834584;29;19917;-65
2023/04/29 08:20:34;;;;;;;;;;;;;;;14.48;73.08;97922.19;4824235;29;19932;-66
2023/04/29 08:22:59;;;;;;;;;;;;;;;14.36;72.75;97914.56;4815495;29;19928;-67
2023/04/29 08:25:25;;;;;;;;;;;;;;;14.25;73.36;97926.06;4841432;29;19936;-66
2023/04/29 08:27:51;;;;;;;;;;;;;;;14.20;74.06;97920.34;4825392;29;19917;-64
2023/04/29 08:30:16;;;;;;;;;;;;;;;14.11;74.29;97922.00;4823409;29;19916;-65
2023/04/29 08:32:41;;;;;;;;;;;;;;;14.00;75.52;97933.47;4829256;29;19920;-65
2023/04/29 08:35:07;;;;;;;;;;;;;;;13.98;74.89;97932.75;4816265;29;19928;-64
2023/04/29 08:37:32;;;;;;;;;;;;;;;13.78;75.15;97936.28;4831371;29;19920;-65
2023/04/29 08:39:57;;;;;;;;;;;;;;;13.65;76.56;97940.94;4829441;29;20302;-65
2023/04/29 08:42:33;;;;;;;;;;;;;;;13.61;77.91;97944.81;4822250;29;19920;-63
2023/04/29 08:44:58;;;;;;;;;;;;;;;13.61;77.53;97944.81;4825887;29;19920;-65
2023/04/29 08:47:24;;;;;;;;;;;;;;;13.70;77.52;97957.19;4808681;29;19921;-64
2023/04/29 08:49:49;;;;;;;;;;;;;;;13.73;76.66;97954.31;4828914;29;19928;-64
2023/04/29 08:52:14;;;;;;;;;;;;;;;14.05;75.61;97948.06;4827659;29;19924;-64
2023/04/29 08:54:40;;;;;;;;;;;;;;;14.33;74.14;97952.59;4826806;29;19932;-65
2023/04/29 08:57:05;;;;;;;;;;;;;;;14.71;73.31;97957.13;4823568;29;19929;-65
2023/04/29 08:59:30;;;;;;;;;;;;;;;14.90;71.39;97947.53;4806684;29;19928;-65
2023/04/29 09:01:56;;;;;;;;;;;;;;;14.82;70.37;97956.16;4830627;29;20572;-65
2023/04/29 09:04:39;;;;;;;;;;;;;;;15.02;69.65;97954.38;4834933;29;20276;-66
2023/04/29 09:07:05;;;;;;;;;;;;;;;15.01;69.78;97954.53;4835451;29;19939;-65
2023/04/29 09:09:31;;;;;;;;;;;;;;;15.07;69.64;97959.22;4810415;29;19973;-65
2023/04/29 09:11:57;;;;;;;;;;;;;;;15.19;68.41;97955.47;4814177;29;19967;-66
2023/04/29 09:14:23;;;;;;;;;;;;;;;15.18;68.40;97967.03;4801875;29;19967;-67
2023/04/29 09:16:48;;;;;;;;;;;;;;;15.24;67.25;97963.81;4819344;29;19927;-66
2023/04/29 09:19:29;;;;;;;;;;;;;;;15.22;67.57;97965.78;4826149;29;19921;-67
2023/04/29 09:21:55;;;;;;;;;;;;;;;15.11;68.25;97968.56;4830645;29;19967;-67
2023/04/29 09:24:23;;;;;;;;;;;;;;;15.05;67.37;97980.50;4828629;29;19921;-66
2023/04/29 09:26:48;;;;;;;;;;;;;;;14.97;67.82;97977.75;4826724;29;19920;-64
2023/04/29 09:29:15;;;;;;;;;;;;;;;14.88;68.49;97974.09;4828606;29;19937;-64
2023/04/29 09:31:40;;;;;;;;;;;;;;;14.78;68.84;97977.72;4830858;29;19920;-65
2023/04/29 09:34:06;;;;;;;;;;;;;;;14.95;68.94;97969.94;4839239;29;20478;-64
2023/04/29 09:36:37;;;;;;;;;;;;;;;15.05;67.72;97969.13;4831485;29;19921;-65
2023/04/29 09:39:04;;;;;;;;;;;;;;;15.28;67.88;97973.16;4823625;29;19955;-66
2023/04/29 09:41:29;;;;;;;;;;;;;;;15.37;67.04;97969.63;4829086;29;19955;-64
2023/04/29 09:44:03;;;;;;;;;;;;;;;15.53;66.16;97965.59;4812164;29;19994;-66
2023/04/29 09:46:28;;;;;;;;;;;;;;;15.61;65.90;97971.81;4814005;29;20000;-66
2023/04/29 09:48:54;;;;;;;;;;;;;;;15.88;64.08;97973.75;4824487;29;19978;-65
2023/04/29 09:51:19;;;;;;;;;;;;;;;15.80;63.49;97976.28;4809120;29;19960;-66
2023/04/29 09:53:44;;;;;;;;;;;;;;;16.21;61.15;97968.03;4837137;29;19916;-66
2023/04/29 09:56:09;;;;;;;;;;;;;;;16.32;61.05;97968.69;4822534;29;20303;-67
2023/04/29 09:58:36;;;;;;;;;;;;;;;16.57;59.78;97975.09;4829578;29;19924;-67
2023/04/29 10:01:01;;;;;;;;;;;;;;;16.65;59.49;97966.41;4827106;29;19921;-67
2023/04/29 10:03:30;;;;;;;;;;;;;;;16.57;60.33;97969.81;4814577;29;19920;-67
2023/04/29 10:05:55;;;;;;;;;;;;;;;16.37;59.58;97974.38;4816724;29;19974;-67
2023/04/29 10:08:20;;;;;;;;;;;;;;;16.19;59.87;97980.59;4815956;29;19968;-66
2023/04/29 10:10:46;;;;;;;;;;;;;;;16.06;58.19;97978.28;4809201;29;19974;-67
2023/04/29 10:13:12;;;;;;;;;;;;;;;16.12;58.79;97981.16;4794457;29;19927;-66
2023/04/29 10:15:41;;;;;;;;;;;;;;;15.97;59.37;97992.38;4812530;29;19925;-64
2023/04/29 10:18:20;;;;;;;;;;;;;;;15.96;58.98;97988.06;4834562;29;19982;-67
2023/04/29 10:20:46;;;;;;;;;;;;;;;15.89;59.20;97991.25;4811788;29;19921;-67
2023/04/29 10:23:11;;;;;;;;;;;;;;;15.75;60.44;97983.78;4830850;29;19924;-67
2023/04/29 10:25:36;;;;;;;;;;;;;;;15.68;60.58;97985.34;4808858;29;19920;-66
2023/04/29 10:28:03;;;;;;;;;;;;;;;15.84;59.53;97988.22;4810479;29;19920;-66
2023/04/29 10:30:28;;;;;;;;;;;;;;;15.89;59.61;97985.16;4808637;29;19966;-66
2023/04/29 10:32:53;;;;;;;;;;;;;;;15.97;58.94;97989.75;4820415;29;19975;-67
2023/04/29 10:35:21;;;;;;;;;;;;;;;16.11;58.89;97986.63;4839123;29;19964;-66
2023/04/29 10:37:46;;;;;;;;;;;;;;;16.17;57.69;97983.38;4839633;29;19959;-67
2023/04/29 10:40:15;;;;;;;;;;;;;;;16.26;58.08;97987.78;4822967;29;20389;-67
2023/04/29 10:42:51;;;;;;;;;;;;;;;16.47;57.81;97978.78;4834744;29;20019;-68
2023/04/29 10:45:17;;;;;;;;;;;;;;;16.54;56.72;97979.84;4823301;29;20348;-67
2023/04/29 10:47:48;;;;;;;;;;;;;;;16.41;57.24;97990.78;4829747;29;19920;-64
2023/04/29 10:50:13;;;;;;;;;;;;;;;16.40;57.01;97983.84;4807636;29;19960;-64
2023/04/29 10:52:50;;;;;;;;;;;;;;;16.52;56.66;97981.84;4832573;29;19978;-65
2023/04/29 10:55:15;;;;;;;;;;;;;;;16.54;57.43;97993.09;4835306;29;20325;-65
2023/04/29 10:57:41;;;;;;;;;;;;;;;16.52;57.76;97989.78;4826715;29;19916;-65
2023/04/29 11:00:06;;;;;;;;;;;;;;;16.06;58.58;97996.78;4826604;29;19920;-64
2023/04/29 11:02:32;;;;;;;;;;;;;;;15.83;58.65;97986.56;4811793;29;19920;-65
2023/04/29 11:05:06;;;;;;;;;;;;;;;15.78;59.28;97988.81;4833780;29;19924;-65
2023/04/29 11:07:32;;;;;;;;;;;;;;;15.78;59.40;97993.25;4826252;29;19955;-67
2023/04/29 11:09:57;;;;;;;;;;;;;;;15.50;60.09;97987.03;4842568;29;19973;-66
2023/04/29 11:12:22;;;;;;;;;;;;;;;15.48;60.12;97996.88;4842051;29;19983;-64
2023/04/29 11:14:50;;;;;;;;;;;;;;;15.38;60.84;97997.75;4831097;29;19968;-64
2023/04/29 11:17:16;;;;;;;;;;;;;;;15.34;61.08;97990.22;4817179;29;19928;-65
2023/04/29 11:19:45;;;;;;;;;;;;;;;15.41;61.02;97996.63;4811411;29;20826;-64
2023/04/29 11:22:16;;;;;;;;;;;;;;;15.60;60.63;97991.31;4840174;29;20416;-65
2023/04/29 11:24:48;;;;;;;;;;;;;;;16.14;60.23;97994.28;4834742;29;20386;-61
2023/04/29 11:27:14;;;;;;;;;;;;;;;16.54;59.10;97996.56;4824306;29;20015;-60
2023/04/29 11:29:39;;;;;;;;;;;;;;;16.47;56.31;97999.97;4824952;29;20024;-62
2023/04/29 11:32:04;;;;;;;;;;;;;;;16.15;57.54;98009.16;4835439;29;20572;-62
2023/04/29 11:34:29;;;;;;;;;;;;;;;16.00;56.92;98007.94;4833417;29;20047;-63
2023/04/29 11:36:55;;;;;;;;;;;;;;;15.86;55.89;98007.44;4835994;29;20368;-63
2023/04/29 11:39:20;;;;;;;;;;;;;;;15.74;57.50;98013.03;4831798;29;19976;-64
2023/04/29 11:41:45;;;;;;;;;;;;;;;15.76;57.33;98017.22;4826279;29;19925;-65
2023/04/29 11:44:10;;;;;;;;;;;;;;;15.68;57.23;98014.44;4826386;29;19925;-64
2023/04/29 11:46:36;;;;;;;;;;;;;;;15.60;57.46;98019.56;4813615;29;20340;-66
2023/04/29 11:49:01;;;;;;;;;;;;;;;15.70;58.25;98025.72;4826146;29;20268;-64
2023/04/29 11:51:27;;;;;;;;;;;;;;;15.81;57.95;98022.91;4838519;29;20360;-65
2023/04/29 11:53:52;;;;;;;;;;;;;;;16.05;57.63;98026.88;4809310;29;20412;-65
2023/04/29 11:56:20;;;;;;;;;;;;;;;16.19;56.92;98017.63;4827418;29;20693;-65
2023/04/29 11:58:45;;;;;;;;;;;;;;;16.24;56.89;98023.31;4803440;29;19960;-65
2023/04/29 12:01:11;;;;;;;;;;;;;;;16.43;56.57;98023.25;4831687;29;19948;-65
2023/04/29 12:03:36;;;;;;;;;;;;;;;16.49;55.86;98014.72;4824449;29;19967;-65
2023/04/29 12:06:01;;;;;;;;;;;;;;;16.33;56.32;98027.75;4831714;29;19928;-65
2023/04/29 12:08:27;;;;;;;;;;;;;;;16.42;56.14;98023.41;4830563;29;19927;-64
2023/04/29 12:10:53;;;;;;;;;;;;;;;16.31;56.03;98032.34;4823483;29;19921;-65
2023/04/29 12:13:18;;;;;;;;;;;;;;;16.16;55.78;98025.88;4826259;29;19916;-66
2023/04/29 12:15:44;;;;;;;;;;;;;;;16.08;56.78;98029.22;4825896;29;20343;-65
2023/04/29 12:18:09;;;;;;;;;;;;;;;16.00;56.98;98031.75;4826183;29;19916;-65
2023/04/29 12:20:34;;;;;;;;;;;;;;;15.87;58.07;98022.31;4833337;29;19920;-64
2023/04/29 12:23:10;;;;;;;;;;;;;;;15.74;58.55;98029.72;4815458;29;19920;-65
2023/04/29 12:25:35;;;;;;;;;;;;;;;15.71;58.05;98023.88;4829678;29;19920;-65
2023/04/29 12:28:00;;;;;;;;;;;;;;;15.66;58.25;98026.97;4826983;29;19966;-65
2023/04/29 12:30:26;;;;;;;;;;;;;;;15.73;58.64;98030.72;4824109;29;19921;-65
2023/04/29 12:32:51;;;;;;;;;;;;;;;15.96;57.65;98033.03;4825576;29;20011;-65
2023/04/29 12:35:16;;;;;;;;;;;;;;;15.94;58.74;98037.63;4831781;29;19921;-65
2023/04/29 12:37:41;;;;;;;;;;;;;;;15.97;58.03;98032.88;4807872;29;19927;-65
2023/04/29 12:40:07;;;;;;;;;;;;;;;15.74;58.49;98029.72;4836343;29;19920;-65
2023/04/29 12:42:35;;;;;;;;;;;;;;;15.65;59.28;98041.09;4821415;29;19969;-65
2023/04/29 12:45:00;;;;;;;;;;;;;;;15.51;59.04;98041.53;4824236;29;19924;-65
2023/04/29 12:47:31;;;;;;;;;;;;;;;15.28;59.12;98044.50;4818519;29;19924;-64
2023/04/29 12:49:57;;;;;;;;;;;;;;;15.27;58.56;98042.78;4814968;29;19948;-65
2023/04/29 12:52:22;;;;;;;;;;;;;;;15.37;59.11;98043.63;4830673;29;19971;-64
2023/04/29 12:54:47;;;;;;;;;;;;;;;15.42;58.99;98040.59;4828289;29;19960;-63
2023/04/29 12:57:12;;;;;;;;;;;;;;;15.63;58.20;98048.38;4824100;29;19916;-64
2023/04/29 12:59:39;;;;;;;;;;;;;;;15.85;57.35;98041.94;4823790;29;20393;-64
2023/04/29 13:02:04;;;;;;;;;;;;;;;15.94;56.88;98050.84;4827777;29;19924;-64
2023/04/29 13:04:30;;;;;;;;;;;;;;;16.05;56.85;98048.03;4837954;29;19921;-66
2023/04/29 13:07:02;;;;;;;;;;;;;;;15.98;55.67;98045.13;4824017;29;20348;-63
2023/04/29 13:09:29;;;;;;;;;;;;;;;15.96;56.71;98039.13;4826863;29;19917;-63
2023/04/29 13:11:54;;;;;;;;;;;;;;;16.05;55.87;98043.56;4814383;29;20479;-64
2023/04/29 13:14:20;;;;;;;;;;;;;;;16.13;55.28;98042.84;4823618;29;19922;-63
2023/04/29 13:16:45;;;;;;;;;;;;;;;16.31;54.91;98049.06;4830713;29;19920;-64
2023/04/29 13:19:10;;;;;;;;;;;;;;;16.58;52.72;98034.16;4834124;29;19917;-63
2023/04/29 13:21:35;;;;;;;;;;;;;;;16.51;51.72;98041.03;4834194;29;19921;-63
2023/04/29 13:24:01;;;;;;;;;;;;;;;16.46;52.44;98040.66;4833854;29;19961;-64
2023/04/29 13:26:26;;;;;;;;;;;;;;;16.40;53.03;98041.22;4823701;29;19956;-64
2023/04/29 13:28:52;;;;;;;;;;;;;;;16.30;53.35;98042.09;4823882;29;20012;-64
2023/04/29 13:31:17;;;;;;;;;;;;;;;16.16;54.20;98050.50;4832355;29;20315;-63
2023/04/29 13:33:42;;;;;;;;;;;;;;;16.01;54.42;98041.38;4817687;29;20327;-63
2023/04/29 13:36:08;;;;;;;;;;;;;;;16.08;55.48;98042.47;4841573;29;19927;-65
2023/04/29 13:38:33;;;;;;;;;;;;;;;16.30;55.22;98041.25;4841613;29;19972;-63
2023/04/29 13:40:58;;;;;;;;;;;;;;;16.28;54.56;98049.38;4825663;29;19973;-64
2023/04/29 13:43:23;;;;;;;;;;;;;;;16.43;53.66;98046.25;4830787;29;19960;-63
2023/04/29 13:45:50;;;;;;;;;;;;;;;16.55;52.61;98045.06;4825760;29;20310;-64
2023/04/29 13:48:15;;;;;;;;;;;;;;;16.37;53.38;98043.19;4830231;29;19924;-63
2023/04/29 13:50:40;;;;;;;;;;;;;;;16.30;52.37;98047.38;4833376;29;19920;-64
2023/04/29 13:53:06;;;;;;;;;;;;;;;16.26;52.37;98045.19;4840123;29;19920;-62
2023/04/29 13:55:33;;;;;;;;;;;;;;;16.29;52.62;98055.47;4833524;29;19928;-62
2023/04/29 13:57:58;;;;;;;;;;;;;;;16.40;51.35;98051.81;4838584;29;19920;-63
2023/04/29 14:00:24;;;;;;;;;;;;;;;16.56;50.76;98052.03;4814224;29;19917;-63
2023/04/29 14:02:49;;;;;;;;;;;;;;;16.67;50.42;98041.25;4833374;29;19946;-63
2023/04/29 14:05:15;;;;;;;;;;;;;;;16.72;50.19;98041.63;4839847;29;20012;-63
2023/04/29 14:07:40;;;;;;;;;;;;;;;16.72;50.06;98046.09;4824921;29;19923;-63
2023/04/29 14:10:05;;;;;;;;;;;;;;;16.65;50.02;98045.84;4839159;29;19955;-65
2023/04/29 14:12:31;;;;;;;;;;;;;;;16.41;50.43;98051.66;4826744;29;19925;-64
2023/04/29 14:14:56;;;;;;;;;;;;;;;16.29;51.21;98051.03;4828360;29;19964;-63
2023/04/29 14:17:21;;;;;;;;;;;;;;;16.11;51.45;98052.75;4833480;29;19924;-63
2023/04/29 14:19:47;;;;;;;;;;;;;;;16.02;51.90;98049.16;4834633;29;19985;-63
2023/04/29 14:22:12;;;;;;;;;;;;;;;15.90;52.00;98055.59;4830417;29;19920;-65
2023/04/29 14:24:38;;;;;;;;;;;;;;;15.80;52.59;98057.44;4823014;29;19924;-64
2023/04/29 14:27:03;;;;;;;;;;;;;;;15.69;52.45;98058.41;4822965;29;20007;-63
2023/04/29 14:29:28;;;;;;;;;;;;;;;15.63;53.68;98059.78;4827358;29;20054;-59
2023/04/29 14:31:54;;;;;;;;;;;;;;;15.48;53.93;98065.59;4840932;29;19917;-63
2023/04/29 14:34:19;;;;;;;;;;;;;;;15.44;54.85;98059.75;4823849;29;19930;-63
2023/04/29 14:36:45;;;;;;;;;;;;;;;15.22;55.09;98066.16;4823222;29;19924;-62
2023/04/29 14:39:10;;;;;;;;;;;;;;;15.08;56.09;98079.78;4830122;29;19927;-62
2023/04/29 14:41:36;;;;;;;;;;;;;;;15.05;56.98;98078.22;4806336;29;19932;-62
2023/04/29 14:44:01;;;;;;;;;;;;;;;14.84;57.72;98080.97;4822541;29;19917;-62
2023/04/29 14:46:27;;;;;;;;;;;;;;;14.93;58.17;98077.53;4829019;29;19924;-63
2023/04/29 14:48:52;;;;;;;;;;;;;;;14.96;58.21;98081.69;4831702;29;20351;-62
2023/04/29 14:51:18;;;;;;;;;;;;;;;14.95;57.24;98085.31;4829831;29;20432;-63
2023/04/29 14:53:43;;;;;;;;;;;;;;;14.87;57.16;98087.81;4831596;29;20419;-63
2023/04/29 14:56:08;;;;;;;;;;;;;;;14.83;57.38;98092.50;4825788;29;20466;-62
2023/04/29 14:58:33;;;;;;;;;;;;;;;14.86;57.32;98096.66;4813603;29;19954;-62
2023/04/29 15:00:59;;;;;;;;;;;;;;;14.95;57.83;98094.06;4834603;29;19924;-62
2023/04/29 15:03:24;;;;;;;;;;;;;;;15.11;57.21;98082.16;4840195;29;19939;-63
2023/04/29 15:05:49;;;;;;;;;;;;;;;15.10;57.33;98088.38;4836391;29;19916;-61
2023/04/29 15:08:16;;;;;;;;;;;;;;;15.10;56.94;98093.66;4812542;29;19916;-62
2023/04/29 15:10:41;;;;;;;;;;;;;;;15.09;57.44;98094.66;4843704;29;20011;-63
2023/04/29 15:13:06;;;;;;;;;;;;;;;15.12;57.33;98091.75;4828311;29;20058;-64
2023/04/29 15:15:32;;;;;;;;;;;;;;;15.13;57.42;98098.69;4838487;29;19973;-67
2023/04/29 15:17:57;;;;;;;;;;;;;;;15.12;56.55;98103.13;4816409;29;19916;-66
2023/04/29 15:20:22;;;;;;;;;;;;;;;15.07;56.93;98104.50;4813323;29;19920;-63
2023/04/29 15:22:47;;;;;;;;;;;;;;;15.13;56.91;98103.97;4835660;29;20314;-64
2023/04/29 15:25:13;;;;;;;;;;;;;;;15.23;56.60;98110.09;4843680;29;19917;-64
2023/04/29 15:27:38;;;;;;;;;;;;;;;15.37;56.75;98107.06;4831950;29;19973;-63
2023/04/29 15:30:04;;;;;;;;;;;;;;;15.48;56.93;98113.19;4828161;29;20309;-63
2023/04/29 15:32:31;;;;;;;;;;;;;;;15.38;56.78;98111.38;4827800;29;19916;-63
2023/04/29 15:35:00;;;;;;;;;;;;;;;15.43;56.51;98111.78;4833590;29;19929;-62
2023/04/29 15:37:26;;;;;;;;;;;;;;;15.30;57.09;98118.31;4820003;29;20287;-62
2023/04/29 15:39:51;;;;;;;;;;;;;;;15.20;58.00;98131.50;4824801;29;19928;-64
2023/04/29 15:42:17;;;;;;;;;;;;;;;15.05;58.01;98117.03;4835755;29;19921;-64
2023/04/29 15:44:42;;;;;;;;;;;;;;;14.93;58.40;98127.72;4837986;29;19921;-63
2023/04/29 15:47:07;;;;;;;;;;;;;;;14.71;59.04;98126.09;4838595;29;19927;-63
2023/04/29 15:49:33;;;;;;;;;;;;;;;14.72;59.36;98125.09;4835490;29;20387;-63
2023/04/29 15:51:58;;;;;;;;;;;;;;;14.64;59.95;98121.47;4843219;29;20554;-63
2023/04/29 15:54:23;;;;;;;;;;;;;;;14.53;60.75;98126.84;4843207;29;19920;-63
2023/04/29 15:56:49;;;;;;;;;;;;;;;14.39;60.50;98125.38;4826777;29;19917;-64
2023/04/29 15:59:14;;;;;;;;;;;;;;;14.39;61.08;98120.91;4812010;29;19921;-62
2023/04/29 16:01:40;;;;;;;;;;;;;;;14.40;61.39;98134.94;4826267;29;19950;-64
2023/04/29 16:04:05;;;;;;;;;;;;;;;14.17;61.66;98131.59;4831705;29;19916;-64
2023/04/29 16:06:31;;;;;;;;;;;;;;;14.09;61.80;98140.16;4824899;29;19920;-63
2023/04/29 16:08:56;;;;;;;;;;;;;;;13.96;62.78;98150.06;4825524;29;19973;-63
2023/04/29 16:11:22;;;;;;;;;;;;;;;13.91;63.02;98153.09;4838208;29;20011;-63
2023/04/29 16:13:47;;;;;;;;;;;;;;;13.86;63.17;98150.00;4836523;29;19921;-62
2023/04/29 16:16:12;;;;;;;;;;;;;;;13.88;62.24;98149.88;4836393;29;19927;-63
2023/04/29 16:18:38;;;;;;;;;;;;;;;13.80;61.17;98161.06;4832567;29;19920;-62
2023/04/29 16:21:03;;;;;;;;;;;;;;;13.84;60.51;98151.94;4826311;29;19924;-63
2023/04/29 16:23:29;;;;;;;;;;;;;;;13.99;59.53;98161.19;4822493;29;19917;-62
2023/04/29 16:25:54;;;;;;;;;;;;;;;13.97;59.46;98163.13;4823927;29;19927;-62
2023/04/29 16:28:20;;;;;;;;;;;;;;;13.78;60.52;98162.97;4815110;29;19920;-62
2023/04/29 16:30:45;;;;;;;;;;;;;;;13.81;60.94;98168.00;4836700;29;19916;-62
2023/04/29 16:33:10;;;;;;;;;;;;;;;13.77;60.74;98172.69;4807085;29;20350;-63
2023/04/29 16:35:36;;;;;;;;;;;;;;;13.86;60.64;98170.25;4825722;29;20418;-64
2023/04/29 16:38:01;;;;;;;;;;;;;;;13.91;60.81;98176.00;4814731;29;19920;-63
2023/04/29 16:40:27;;;;;;;;;;;;;;;13.79;61.20;98172.53;4826036;29;19925;-62
2023/04/29 16:42:53;;;;;;;;;;;;;;;13.78;61.26;98184.91;4827509;29;19977;-64
2023/04/29 16:45:18;;;;;;;;;;;;;;;13.78;61.54;98184.91;4839559;29;20342;-63
2023/04/29 16:47:43;;;;;;;;;;;;;;;13.76;61.82;98191.25;4836678;29;19920;-63
2023/04/29 16:50:09;;;;;;;;;;;;;;;13.78;61.77;98184.91;4813840;29;19921;-64
2023/04/29 16:52:34;;;;;;;;;;;;;;;13.78;62.14;98192.81;4834192;29;19920;-64
2023/04/29 16:55:00;;;;;;;;;;;;;;;13.75;62.51;98189.59;4829927;29;19928;-63
2023/04/29 16:57:26;;;;;;;;;;;;;;;13.76;62.20;98192.13;4822913;29;19924;-62
2023/04/29 16:59:51;;;;;;;;;;;;;;;13.76;62.69;98196.53;4833151;29;19916;-62
2023/04/29 17:02:17;;;;;;;;;;;;;;;13.78;63.25;98194.59;4829602;29;19931;-63
2023/04/29 17:04:42;;;;;;;;;;;;;;;13.80;63.00;98194.47;4830129;29;19916;-62
2023/04/29 17:07:08;;;;;;;;;;;;;;;13.70;63.43;98197.03;4825405;29;19935;-62
2023/04/29 17:09:33;;;;;;;;;;;;;;;13.74;63.17;98193.19;4829290;29;20028;-62
2023/04/29 17:11:59;;;;;;;;;;;;;;;13.75;63.12;98198.31;4827960;29;19920;-62
2023/04/29 17:14:24;;;;;;;;;;;;;;;13.66;63.76;98198.22;4832745;29;19953;-62
2023/04/29 17:16:49;;;;;;;;;;;;;;;13.65;63.61;98199.19;4841225;29;20405;-62
2023/04/29 17:19:15;;;;;;;;;;;;;;;13.61;64.20;98192.50;4840174;29;20391;-62
2023/04/29 17:21:40;;;;;;;;;;;;;;;13.63;63.37;98198.50;4822859;29;20605;-62
2023/04/29 17:24:05;;;;;;;;;;;;;;;13.53;64.15;98207.16;4830146;29;19925;-62
2023/04/29 17:26:31;;;;;;;;;;;;;;;13.60;63.87;98204.03;4822754;29;19917;-62
2023/04/29 17:28:56;;;;;;;;;;;;;;;13.44;64.93;98207.03;4831858;29;20133;-62
2023/04/29 17:31:24;;;;;;;;;;;;;;;13.41;64.85;98202.84;4837344;29;19931;-62